FlightSpace

METAR
EPPO 212100Z 32008KT 9999 FEW007 11/10 Q1018
TAF
TAF EPPO 211730Z 2118/2218 32008KT 9999 BKN040 BECMG 2121/2123 BKN014 PROB40 TEMPO 2122/2206 3000 BR BKN004
TAF EPPO 211130Z 2112/2212 33010KT 9999 BKN020 PROB30 TEMPO 2114/2117 SCT020CB TEMPO 2121/2208 BKN014 PROB40 TEMPO 2122/2206 2000 BR BKN004
TAF EPPO 210530Z 2106/2206 29004KT CAVOK TEMPO 2106/2108 2500 BR BECMG 2110/2112 35010KT TEMPO 2112/2121 35015G25KT SCT030CB
TAF EPPO 202330Z 2100/2124 28003KT CAVOK TEMPO 2100/2108 2500 BR PROB40 2101/2106 0300 FG PROB30 2105/2108 BKN002 TEMPO 2108/2110 BKN009 BECMG 2110/2112 34010KT TEMPO 2112/2121 SCT030CB

Poznań-Ławica Airport ( EPPO , POZ )


Location
  • Country: PL
  • Region: PL-WP
  • Municipality: Poznań
  • ARP: 52.421 16.8263, elev. 308 ft
  • ICAO Address: EPPO
  • IATA Code: POZ
  • GPS Code: EPPO
  • Ident: EPPO
  • Time Zone: Europe/Warsaw
  • Actual Local Time: 23:08:31
Radio communication
TWR 119.975 MHz POZNAN TWR
ATIS 124.700 MHz POZNAN ATIS
APP 135.525 MHz POZNAN APP
Runways
Direction Width Length Surface
28 50 2504 ASP
10 50 2504 ASP
Comments



Advertisement